Time;durP1;ratioP1;P1;durP2;ratioP2;P2;SDS_P1;SDS_P2;PMS_P1;PMS_P2;Temp;Humidity;BMP_temperature;BMP_pressure;BME280_temperature;BME280_humidity;BME280_pressure;Samples;Min_cycle;Max_cycle;Signal;HPM_P1;HPM_P2
2021/10/20 00:00:19;;;;;;;76.22;54.85;;;;;;;;;;4954016;29;20043;-62
2021/10/20 00:02:47;;;;;;;75.63;54.95;;;;;;;;;;4921948;29;20043;-61
2021/10/20 00:05:14;;;;;;;73.07;54.28;;;;;;;;;;4938765;29;20050;-61
2021/10/20 00:07:40;;;;;;;74.25;54.75;;;;;;;;;;4954215;29;20043;-61
2021/10/20 00:10:06;;;;;;;67.43;53.80;;;;;;;;;;4955956;29;20043;-61
2021/10/20 00:12:33;;;;;;;70.97;53.38;;;;;;;;;;4953714;29;20031;-61
2021/10/20 00:14:59;;;;;;;73.18;53.67;;;;;;;;;;4952676;29;20561;-61
2021/10/20 00:17:25;;;;;;;70.60;54.05;;;;;;;;;;4931276;29;20028;-61
2021/10/20 00:19:56;;;;;;;72.57;54.45;;;;;;;;;;4936156;29;20051;-61
2021/10/20 00:22:24;;;;;;;71.93;53.22;;;;;;;;;;4941162;29;20035;-61
2021/10/20 00:24:55;;;;;;;72.03;55.47;;;;;;;;;;4955018;29;20028;-61
2021/10/20 00:27:21;;;;;;;72.55;56.40;;;;;;;;;;4953824;29;20489;-61
2021/10/20 00:29:47;;;;;;;75.40;55.40;;;;;;;;;;4954919;29;20043;-62
2021/10/20 00:32:13;;;;;;;73.53;56.13;;;;;;;;;;4953951;29;20031;-61
2021/10/20 00:34:39;;;;;;;65.15;54.15;;;;;;;;;;4954853;29;20042;-61
2021/10/20 00:37:04;;;;;;;72.80;54.78;;;;;;;;;;4936120;29;20044;-61
2021/10/20 00:39:30;;;;;;;69.50;55.03;;;;;;;;;;4954734;29;20046;-61
2021/10/20 00:41:56;;;;;;;69.38;53.72;;;;;;;;;;4953817;29;20414;-61
2021/10/20 00:44:22;;;;;;;73.70;55.05;;;;;;;;;;4953749;29;20127;-61
2021/10/20 00:46:49;;;;;;;73.15;54.80;;;;;;;;;;4953715;29;20540;-61
2021/10/20 00:49:15;;;;;;;78.10;54.97;;;;;;;;;;4935670;29;20040;-61
2021/10/20 00:51:41;;;;;;;73.97;55.78;;;;;;;;;;4935779;29;20047;-61
2021/10/20 00:54:07;;;;;;;72.45;56.92;;;;;;;;;;4951939;29;20138;-61
2021/10/20 00:56:33;;;;;;;68.13;53.03;;;;;;;;;;4954697;29;20035;-62
2021/10/20 00:59:00;;;;;;;68.45;53.92;;;;;;;;;;4953303;29;20134;-61
2021/10/20 01:01:27;;;;;;;72.43;52.85;;;;;;;;;;4954489;29;20031;-62
2021/10/20 01:03:53;;;;;;;69.43;52.50;;;;;;;;;;4953875;28;20089;-61
2021/10/20 01:06:19;;;;;;;69.78;54.17;;;;;;;;;;4954516;29;20470;-61
2021/10/20 01:08:45;;;;;;;69.18;51.05;;;;;;;;;;4953761;29;20068;-61
2021/10/20 01:11:11;;;;;;;69.20;50.03;;;;;;;;;;4955904;28;20035;-61
2021/10/20 01:13:37;;;;;;;71.13;51.30;;;;;;;;;;4926774;29;20047;-62
2021/10/20 01:16:03;;;;;;;66.88;51.03;;;;;;;;;;4941280;29;20039;-61
2021/10/20 01:18:29;;;;;;;67.97;50.30;;;;;;;;;;4956598;29;20058;-60
2021/10/20 01:20:59;;;;;;;64.65;50.97;;;;;;;;;;4958811;29;20437;-61
2021/10/20 01:23:26;;;;;;;66.70;52.83;;;;;;;;;;4957275;29;20035;-61
2021/10/20 01:25:58;;;;;;;67.72;52.10;;;;;;;;;;4957947;29;20039;-61
2021/10/20 01:28:24;;;;;;;69.88;53.88;;;;;;;;;;4957061;29;20045;-61
2021/10/20 01:30:50;;;;;;;69.22;52.97;;;;;;;;;;4958043;29;20039;-61
2021/10/20 01:33:50;;;;;;;68.03;52.95;;;;;;;;;;4956810;29;20043;-61
2021/10/20 01:36:16;;;;;;;69.75;53.25;;;;;;;;;;4940560;29;20483;-61
2021/10/20 01:38:42;;;;;;;71.18;54.33;;;;;;;;;;4956786;29;20138;-61
2021/10/20 01:41:08;;;;;;;70.65;53.67;;;;;;;;;;4955058;29;20043;-61
2021/10/20 01:43:37;;;;;;;67.22;52.28;;;;;;;;;;4956383;29;20126;-61
2021/10/20 01:46:03;;;;;;;68.90;53.95;;;;;;;;;;4957712;29;20393;-61
2021/10/20 01:48:30;;;;;;;68.95;52.88;;;;;;;;;;4929259;29;20036;-61
2021/10/20 01:50:56;;;;;;;67.82;53.58;;;;;;;;;;4938305;29;20044;-61
2021/10/20 01:53:22;;;;;;;69.90;54.08;;;;;;;;;;4942707;29;20501;-61
2021/10/20 01:55:48;;;;;;;65.93;52.35;;;;;;;;;;4938606;29;20035;-61
2021/10/20 01:58:14;;;;;;;70.90;54.75;;;;;;;;;;4945867;29;20405;-61
2021/10/20 02:00:40;;;;;;;67.65;53.25;;;;;;;;;;4957268;29;20074;-61
2021/10/20 02:03:06;;;;;;;69.63;52.47;;;;;;;;;;4955573;29;20039;-61
2021/10/20 02:05:32;;;;;;;68.28;52.10;;;;;;;;;;4956606;29;20512;-61
2021/10/20 02:07:58;;;;;;;68.78;51.53;;;;;;;;;;4956201;29;20133;-61
2021/10/20 02:10:24;;;;;;;66.25;51.42;;;;;;;;;;4957207;29;20032;-61
2021/10/20 02:12:50;;;;;;;66.07;50.53;;;;;;;;;;4956085;29;20059;-61
2021/10/20 02:15:16;;;;;;;70.20;52.92;;;;;;;;;;4939702;29;20426;-61
2021/10/20 02:17:42;;;;;;;71.30;54.03;;;;;;;;;;4938862;29;20408;-61
2021/10/20 02:20:09;;;;;;;71.03;52.90;;;;;;;;;;4956869;29;20419;-61
2021/10/20 02:22:35;;;;;;;67.05;53.10;;;;;;;;;;4955146;28;20047;-61
2021/10/20 02:25:02;;;;;;;70.47;52.60;;;;;;;;;;4957530;29;20122;-61
2021/10/20 02:27:28;;;;;;;68.78;52.03;;;;;;;;;;4955863;29;20043;-61
2021/10/20 02:29:54;;;;;;;65.15;51.58;;;;;;;;;;4956022;29;20123;-62
2021/10/20 02:32:20;;;;;;;68.07;52.33;;;;;;;;;;4957062;29;20036;-61
2021/10/20 02:34:47;;;;;;;69.80;53.88;;;;;;;;;;4953847;28;20050;-61
2021/10/20 02:37:13;;;;;;;69.30;52.30;;;;;;;;;;4956801;29;20035;-61
2021/10/20 02:39:42;;;;;;;70.78;53.03;;;;;;;;;;4955784;29;20130;-61
2021/10/20 02:42:08;;;;;;;73.38;52.95;;;;;;;;;;4956575;29;20111;-61
2021/10/20 02:44:34;;;;;;;65.88;52.58;;;;;;;;;;4955519;29;20051;-61
2021/10/20 02:47:00;;;;;;;65.65;51.53;;;;;;;;;;4956549;29;20035;-61
2021/10/20 02:49:27;;;;;;;66.53;53.05;;;;;;;;;;4954914;29;20050;-61
2021/10/20 02:51:53;;;;;;;68.28;51.35;;;;;;;;;;4956517;29;20110;-61
2021/10/20 02:54:20;;;;;;;65.38;53.67;;;;;;;;;;4955276;29;20504;-61
2021/10/20 02:56:46;;;;;;;65.32;53.42;;;;;;;;;;4939646;29;20068;-61
2021/10/20 02:59:12;;;;;;;72.63;54.38;;;;;;;;;;4955003;29;20051;-61
2021/10/20 03:01:38;;;;;;;67.63;53.28;;;;;;;;;;4956473;29;20039;-61
2021/10/20 03:04:05;;;;;;;70.10;52.78;;;;;;;;;;4955413;29;20382;-61
2021/10/20 03:06:31;;;;;;;66.60;51.17;;;;;;;;;;4956330;29;20544;-61
2021/10/20 03:08:58;;;;;;;68.68;51.80;;;;;;;;;;4955073;29;20070;-61
2021/10/20 03:11:24;;;;;;;64.40;50.58;;;;;;;;;;4956176;29;20035;-62
2021/10/20 03:13:49;;;;;;;70.10;52.78;;;14.70;87.70;;;;;;4954664;29;20134;-62
2021/10/20 03:16:16;;;;;;;65.20;51.75;;;14.70;87.90;;;;;;4955380;29;20123;-62
2021/10/20 03:18:41;;;;;;;69.55;52.55;;;14.70;86.80;;;;;;4930064;29;20410;-62
2021/10/20 03:21:07;;;;;;;64.57;51.45;;;14.80;87.10;;;;;;4936733;29;20042;-62
2021/10/20 03:23:33;;;;;;;66.55;50.65;;;14.80;87.20;;;;;;4919689;29;20035;-62
2021/10/20 03:25:58;;;;;;;64.20;50.90;;;14.80;87.10;;;;;;4937670;29;20036;-62
2021/10/20 03:28:30;;;;;;;68.72;54.50;;;;;;;;;;4919505;29;20375;-62
2021/10/20 03:30:56;;;;;;;71.82;53.28;;;;;;;;;;4938339;29;20063;-62
2021/10/20 03:33:22;;;;;;;66.90;53.20;;;;;;;;;;4952877;28;20454;-61
2021/10/20 03:35:48;;;;;;;64.28;51.20;;;;;;;;;;4955895;29;20043;-62
2021/10/20 03:38:15;;;;;;;64.43;50.72;;;;;;;;;;4954628;29;20095;-62
2021/10/20 03:40:41;;;;;;;65.90;49.65;;;;;;;;;;4955826;29;20070;-62
2021/10/20 03:43:07;;;;;;;63.83;50.72;;;;;;;;;;4937093;29;20519;-62
2021/10/20 03:45:33;;;;;;;65.15;50.95;;;;;;;;;;4955078;29;20512;-62
2021/10/20 03:47:59;;;;;;;61.50;49.17;;;;;;;;;;4954527;29;20087;-62
2021/10/20 03:50:25;;;;;;;66.95;51.13;;;;;;;;;;4956058;29;20039;-62
2021/10/20 03:52:51;;;;;;;64.80;47.55;;;;;;;;;;4954694;29;20034;-62
2021/10/20 03:55:17;;;;;;;63.33;48.60;;;;;;;;;;4955214;29;20170;-62
2021/10/20 03:57:43;;;;;;;63.65;48.55;;;;;;;;;;4955487;29;20059;-62
2021/10/20 04:00:11;;;;;;;68.93;50.47;;;;;;;;;;4953507;29;20338;-62
2021/10/20 04:02:42;;;;;;;66.80;50.75;;;;;;;;;;4955202;29;20035;-62
2021/10/20 04:05:08;;;;;;;70.70;52.78;;;;;;;;;;4919857;29;20063;-62
2021/10/20 04:07:34;;;;;;;68.35;52.67;;;;;;;;;;4936018;29;20490;-62
2021/10/20 04:10:00;;;;;;;69.57;52.08;;;;;;;;;;4951950;29;20101;-61
2021/10/20 04:12:26;;;;;;;68.72;52.30;;;;;;;;;;4937816;29;20035;-61
2021/10/20 04:14:52;;;;;;;70.35;53.40;;;;;;;;;;4953836;29;20041;-62
2021/10/20 04:17:18;;;;;;;72.93;53.38;;;;;;;;;;4955260;29;20035;-62
2021/10/20 04:19:44;;;;;;;71.50;52.97;;;;;;;;;;4953683;29;20099;-62
2021/10/20 04:22:10;;;;;;;70.70;51.92;;;;;;;;;;4955054;29;20038;-62
2021/10/20 04:24:36;;;;;;;70.75;51.75;;;;;;;;;;4954217;29;20063;-61
2021/10/20 04:27:02;;;;;;;77.07;55.60;;;;;;;;;;4954916;29;20035;-62
2021/10/20 04:29:28;;;;;;;67.15;51.88;;;;;;;;;;4951814;29;20039;-62
2021/10/20 04:31:54;;;;;;;72.35;53.88;;;;;;;;;;4953727;29;20038;-62
2021/10/20 04:34:20;;;;;;;75.25;56.00;;;;;;;;;;4954853;29;20043;-62
2021/10/20 04:36:46;;;;;;;66.88;49.90;;;;;;;;;;4944632;29;20039;-62
2021/10/20 04:39:12;;;;;;;69.75;51.30;;;;;;;;;;4934375;29;20565;-62
2021/10/20 04:41:38;;;;;;;68.60;52.63;;;;;;;;;;4939139;29;20055;-62
2021/10/20 04:44:04;;;;;;;68.72;51.97;;;;;;;;;;4947322;28;20082;-62
2021/10/20 04:46:30;;;;;;;69.72;50.22;;;;;;;;;;4957081;29;20031;-61
2021/10/20 04:48:59;;;;;;;70.25;54.08;;;;;;;;;;4941310;29;20038;-61
2021/10/20 04:51:25;;;;;;;67.25;49.85;;;;;;;;;;4957288;29;20111;-61
2021/10/20 04:53:51;;;;;;;68.78;50.42;;;;;;;;;;4958549;29;20063;-61
2021/10/20 04:56:17;;;;;;;72.18;53.63;;;;;;;;;;4957207;29;20053;-61
2021/10/20 04:58:43;;;;;;;68.57;53.05;;;;;;;;;;4955665;29;20047;-61
2021/10/20 05:01:09;;;;;;;74.40;53.78;;;;;;;;;;4958299;29;20434;-61
2021/10/20 05:03:35;;;;;;;67.35;52.10;;;;;;;;;;4957369;29;20042;-61
2021/10/20 05:06:01;;;;;;;71.50;54.03;;;;;;;;;;4958197;29;20548;-61
2021/10/20 05:08:27;;;;;;;70.25;54.00;;;;;;;;;;4957192;29;20485;-61
2021/10/20 05:10:56;;;;;;;70.03;53.72;;;;;;;;;;4940812;29;20472;-61
2021/10/20 05:13:22;;;;;;;72.53;54.00;;;;;;;;;;4956307;28;20035;-61
2021/10/20 05:15:48;;;;;;;66.47;52.45;;;;;;;;;;4957038;29;20047;-61
2021/10/20 05:18:14;;;;;;;69.38;51.85;;;;;;;;;;4957184;29;20072;-61
2021/10/20 05:20:40;;;;;;;64.95;50.53;;;;;;;;;;4957825;29;20130;-61
2021/10/20 05:23:06;;;;;;;71.82;51.22;;;;;;;;;;4922551;29;20123;-61
2021/10/20 05:25:32;;;;;;;67.32;52.55;;;;;;;;;;4939053;29;20031;-61
2021/10/20 05:27:58;;;;;;;71.25;52.13;;;;;;;;;;4954980;28;20035;-61
2021/10/20 05:30:24;;;;;;;73.97;51.78;;;;;;;;;;4958440;29;20039;-61
2021/10/20 05:32:53;;;;;;;68.88;50.90;;;;;;;;;;4956629;29;20605;-61
2021/10/20 05:35:19;;;;;;;66.90;48.72;;;;;;;;;;4957994;29;20035;-61
2021/10/20 05:37:46;;;;;;;71.85;51.53;;;;;;;;;;4956758;29;20043;-61
2021/10/20 05:40:25;;;;;;;68.72;49.22;;;;;;;;;;4940431;29;20445;-61
2021/10/20 05:42:51;;;;;;;66.25;51.33;;;;;;;;;;4924839;29;20047;-61
2021/10/20 05:45:18;;;;;;;61.78;50.53;;;;;;;;;;4938418;29;20036;-61
2021/10/20 05:47:44;;;;;;;74.10;49.22;;;;;;;;;;4947589;29;20173;-61
2021/10/20 05:50:10;;;;;;;63.97;47.92;;;;;;;;;;4937849;29;20430;-61
2021/10/20 05:52:36;;;;;;;73.30;49.47;;;;;;;;;;4950805;29;20046;-61
2021/10/20 05:55:03;;;;;;;68.10;49.67;;;;;;;;;;4956171;29;20107;-61
2021/10/20 05:57:29;;;;;;;65.38;49.03;;;;;;;;;;4954083;28;20035;-61
2021/10/20 05:59:58;;;;;;;65.38;48.58;;;;;;;;;;4955148;29;20090;-60
2021/10/20 06:02:24;;;;;;;61.85;48.80;;;;;;;;;;4956223;29;20039;-60
2021/10/20 06:04:51;;;;;;;63.95;47.15;;;;;;;;;;4957477;29;20086;-60
2021/10/20 06:07:17;;;;;;;66.18;48.40;;;;;;;;;;4956319;29;20035;-60
2021/10/20 06:09:43;;;;;;;67.18;48.40;;;;;;;;;;4957363;29;20039;-61
2021/10/20 06:12:09;;;;;;;61.67;47.28;;;;;;;;;;4954576;29;20404;-61
2021/10/20 06:14:35;;;;;;;69.63;46.38;;;;;;;;;;4955891;29;20493;-61
2021/10/20 06:17:01;;;;;;;64.38;46.25;;;;;;;;;;4952255;28;20035;-61
2021/10/20 06:19:27;;;;;;;62.03;47.63;;;;;;;;;;4956288;29;20082;-61
2021/10/20 06:21:53;;;;;;;60.28;44.25;;;;;;;;;;4955028;29;20417;-61
2021/10/20 06:24:19;;;;;;;59.45;43.80;;;;;;;;;;4955970;29;20122;-61
2021/10/20 06:26:45;;;;;;;59.50;42.28;;;;;;;;;;4952368;29;20402;-61
2021/10/20 06:29:11;;;;;;;61.17;42.47;;;;;;;;;;4956941;29;20077;-61
2021/10/20 06:31:37;;;;;;;62.67;42.58;;;;;;;;;;4935001;29;20099;-61
2021/10/20 06:34:03;;;;;;;63.17;45.38;;;;;;;;;;4937808;29;20039;-60
2021/10/20 06:36:30;;;;;;;60.28;44.63;;;;;;;;;;4947786;29;20047;-61
2021/10/20 06:38:57;;;;;;;57.53;43.85;;;;;;;;;;4937819;29;20048;-61
2021/10/20 06:41:23;;;;;;;61.20;45.50;;;;;;;;;;4938308;29;20111;-60
2021/10/20 06:43:49;;;;;;;58.40;43.40;;;;;;;;;;4956369;29;20046;-60
2021/10/20 06:46:21;;;;;;;57.42;40.72;;;;;;;;;;4942633;29;20036;-60
2021/10/20 06:48:47;;;;;;;53.38;42.13;;;;;;;;;;4937851;29;20127;-60
2021/10/20 06:51:14;;;;;;;61.05;42.33;;;;;;;;;;4919806;29;20445;-60
2021/10/20 06:53:40;;;;;;;49.85;40.25;;;;;;;;;;4956328;29;20039;-61
2021/10/20 06:56:07;;;;;;;51.63;38.53;;;;;;;;;;4954994;29;20059;-61
2021/10/20 06:58:37;;;;;;;52.17;37.78;;;;;;;;;;4920480;29;20506;-61
2021/10/20 07:01:03;;;;;;;56.30;39.22;;;;;;;;;;4936735;29;20051;-61
2021/10/20 07:03:29;;;;;;;49.92;37.15;;;;;;;;;;4952874;29;20175;-61
2021/10/20 07:05:55;;;;;;;52.60;37.88;;;;;;;;;;4955490;29;20154;-61
2021/10/20 07:08:21;;;;;;;50.25;38.13;;;;;;;;;;4952686;28;20489;-61
2021/10/20 07:10:47;;;;;;;49.42;36.00;;;;;;;;;;4955260;29;20042;-61
2021/10/20 07:13:15;;;;;;;48.38;35.85;;;;;;;;;;4953913;28;20515;-61
2021/10/20 07:15:41;;;;;;;49.40;36.20;;;;;;;;;;4954535;29;20106;-61
2021/10/20 07:18:07;;;;;;;48.78;36.70;;;;;;;;;;4953544;29;20036;-61
2021/10/20 07:20:33;;;;;;;51.50;36.40;;;;;;;;;;4955639;29;20070;-61
2021/10/20 07:22:59;;;;;;;51.35;36.80;;;;;;;;;;4953729;29;20055;-61
2021/10/20 07:25:25;;;;;;;48.63;37.55;;;;;;;;;;4938427;29;20042;-61
2021/10/20 07:27:51;;;;;;;51.42;39.30;;;;;;;;;;4937518;29;20050;-61
2021/10/20 07:30:18;;;;;;;57.53;40.35;;;;;;;;;;4952964;28;20045;-61
2021/10/20 07:32:44;;;;;;;50.70;38.03;;;;;;;;;;4953938;28;20048;-61
2021/10/20 07:35:11;;;;;;;49.72;36.58;;;;;;;;;;4936502;29;20043;-61
2021/10/20 07:37:38;;;;;;;55.55;38.33;;;;;;;;;;4944810;29;20040;-61
2021/10/20 07:40:04;;;;;;;48.60;37.55;;;;;;;;;;4955320;29;20512;-61
2021/10/20 07:42:32;;;;;;;54.65;37.10;;;;;;;;;;4954136;29;20401;-61
2021/10/20 07:44:58;;;;;;;57.00;38.67;;;;;;;;;;4938800;29;20047;-61
2021/10/20 07:47:26;;;;;;;52.95;38.95;;;;;;;;;;4954015;28;20035;-61
2021/10/20 07:49:53;;;;;;;53.50;37.33;;;;;;;;;;4938031;29;20559;-61
2021/10/20 07:52:20;;;;;;;49.17;38.35;;;;;;;;;;4951634;29;20134;-61
2021/10/20 07:54:46;;;;;;;53.25;37.67;;;;;;;;;;4955872;29;20067;-61
2021/10/20 07:57:12;;;;;;;48.10;37.00;;;;;;;;;;4933326;29;20039;-61
2021/10/20 07:59:38;;;;;;;53.33;38.60;;;;;;;;;;4948843;29;20060;-61
2021/10/20 08:02:04;;;;;;;55.03;38.88;;;;;;;;;;4938563;29;20100;-61
2021/10/20 08:04:33;;;;;;;58.88;39.15;;;;;;;;;;4955518;29;20043;-62
2021/10/20 08:06:59;;;;;;;59.17;39.85;;;;;;;;;;4954042;29;20471;-61
2021/10/20 08:09:25;;;;;;;56.97;40.45;;;;;;;;;;4955382;29;20038;-62
2021/10/20 08:11:51;;;;;;;56.03;39.60;;;;;;;;;;4954073;29;20035;-61
2021/10/20 08:14:17;;;;;;;54.85;38.63;;;;;;;;;;4948014;29;20497;-62
2021/10/20 08:16:43;;;;;;;55.35;39.88;;;;;;;;;;4954202;29;20037;-62
2021/10/20 08:19:09;;;;;;;54.63;37.20;;;;;;;;;;4953603;29;20066;-61
2021/10/20 08:21:35;;;;;;;51.63;38.13;;;;;;;;;;4954017;29;20107;-61
2021/10/20 08:24:01;;;;;;;52.15;40.05;;;;;;;;;;4922722;29;20063;-63
2021/10/20 08:26:27;;;;;;;50.03;37.33;;;;;;;;;;4948092;29;20054;-63
2021/10/20 08:28:53;;;;;;;50.10;37.83;;;;;;;;;;4947510;29;20390;-63
2021/10/20 08:31:19;;;;;;;53.80;37.38;;;;;;;;;;4945765;29;20035;-63
2021/10/20 08:33:45;;;;;;;48.42;37.28;;;;;;;;;;4946052;29;20043;-64
2021/10/20 08:36:11;;;;;;;54.88;39.90;;;;;;;;;;4944819;29;20062;-64
2021/10/20 08:38:37;;;;;;;56.50;38.72;;;;;;;;;;4943735;29;20179;-64
2021/10/20 08:41:03;;;;;;;51.28;39.13;;;;;;;;;;4951798;29;20042;-63
2021/10/20 08:43:29;;;;;;;52.45;37.20;;;;;;;;;;4953152;29;20094;-63
2021/10/20 08:45:55;;;;;;;53.33;39.20;;;;;;;;;;4954130;29;20481;-63
2021/10/20 08:48:22;;;;;;;55.22;40.05;;;;;;;;;;4951956;29;20035;-63
2021/10/20 08:50:53;;;;;;;57.95;39.55;;;;;;;;;;4920040;29;20043;-63
2021/10/20 08:53:22;;;;;;;55.15;40.60;;;;;;;;;;4941053;29;20043;-63
2021/10/20 08:55:49;;;;;;;52.85;39.80;;;;;;;;;;4935486;29;20051;-63
2021/10/20 08:58:16;;;;;;;56.28;40.50;;;;;;;;;;4944080;29;20043;-63
2021/10/20 09:00:42;;;;;;;58.30;42.08;;;;;;;;;;4937367;29;20027;-62
2021/10/20 09:03:08;;;;;;;53.45;41.38;;;;;;;;;;4953404;29;20493;-62
2021/10/20 09:05:35;;;;;;;60.83;43.42;;;;;;;;;;4954536;29;20114;-62
2021/10/20 09:08:01;;;;;;;64.70;46.67;;;;;;;;;;4929386;29;20071;-62
2021/10/20 09:10:28;;;;;;;64.95;46.80;;;;;;;;;;4938147;29;20067;-63
2021/10/20 09:12:54;;;;;;;62.70;46.80;;;;;;;;;;4953509;29;20043;-62
2021/10/20 09:15:23;;;;;;;65.15;44.85;;;;;;;;;;4937114;29;20070;-62
2021/10/20 09:17:50;;;;;;;56.60;42.28;;;;;;;;;;4951418;29;20043;-63
2021/10/20 09:20:24;;;;;;;59.55;43.70;;;;;;;;;;4953872;28;20050;-63
2021/10/20 09:23:00;;;;;;;62.53;46.63;;;;;;;;;;4952960;29;20044;-62
2021/10/20 09:25:31;;;;;;;66.70;47.65;;;;;;;;;;4954458;29;20481;-63
2021/10/20 09:27:59;;;;;;;63.60;46.75;;;;;;;;;;4952906;29;20039;-62
2021/10/20 09:30:27;;;;;;;61.28;47.30;;;;;;;;;;4937144;28;20046;-63
2021/10/20 09:32:55;;;;;;;66.45;47.55;;;;;;;;;;4934960;29;20046;-63
2021/10/20 09:35:21;;;;;;;62.97;45.83;;;;;;;;;;4938419;29;20059;-63
2021/10/20 09:37:47;;;;;;;62.03;45.00;;;;;;;;;;4940860;29;20039;-63
2021/10/20 09:40:14;;;;;;;58.92;45.58;;;;;;;;;;4956365;29;20050;-63
2021/10/20 09:42:51;;;;;;;61.35;45.63;;;;;;;;;;4956195;29;20397;-63
2021/10/20 09:45:19;;;;;;;56.35;43.85;;;;;;;;;;4956767;29;20027;-63
2021/10/20 09:47:45;;;;;;;61.10;44.22;;;;;;;;;;4956262;29;20114;-63
2021/10/20 09:50:11;;;;;;;55.63;42.53;;;;;;;;;;4957788;29;20039;-63
2021/10/20 09:52:45;;;;;;;56.13;42.55;;;;;;;;;;4939012;29;20047;-63
2021/10/20 09:55:30;;;;;;;53.90;42.50;;;;;;;;;;4957611;29;20039;-63
2021/10/20 09:57:56;;;;;;;;;;;;;;;;;;4935918;29;20032;-63
2021/10/20 10:00:40;;;;;;;57.60;45.88;;;;;;;;;;4938397;29;19907;-63
2021/10/20 10:03:06;;;;;;;;;;;;;;;;;;4943545;29;20032;-63
2021/10/20 10:05:33;;;;;;;56.00;44.22;;;;;;;;;;4957405;29;19914;-63
2021/10/20 10:07:59;;;;;;;61.33;46.42;;;;;;;;;;4955458;29;20039;-63
2021/10/20 10:10:26;;;;;;;59.78;45.53;;;;;;;;;;4957395;29;20053;-63
2021/10/20 10:12:54;;;;;;;62.70;47.38;;;;;;;;;;4955965;29;20497;-63
2021/10/20 10:15:20;;;;;;;65.95;45.88;;;;;;;;;;4956958;29;20024;-63
2021/10/20 10:17:48;;;;;;;57.88;44.30;;;;;;;;;;4949847;29;20039;-63
2021/10/20 10:20:15;;;;;;;62.03;45.38;;;;;;;;;;4956805;29;20103;-63
2021/10/20 10:22:55;;;;;;;60.80;46.83;;;;;;;;;;4956101;29;20090;-63
2021/10/20 10:25:22;;;;;;;67.65;45.05;;;;;;;;;;4939601;29;20038;-63
2021/10/20 10:28:00;;;;;;;59.10;45.35;;;;;;;;;;4955720;29;20074;-63
2021/10/20 10:30:26;;;;;;;59.70;46.95;;;;;;;;;;4956713;29;20500;-63
2021/10/20 10:32:58;;;;;;;64.22;46.45;;;;;;;;;;4955500;29;20077;-64
2021/10/20 10:35:32;;;;;;;61.65;44.85;;;;;;;;;;4955656;29;20535;-63
2021/10/20 10:38:05;;;;;;;56.20;43.15;;;;;;;;;;4952240;28;20050;-63
2021/10/20 10:40:32;;;;;;;60.55;43.88;;;;;;;;;;4956767;29;20046;-63
2021/10/20 10:43:06;;;;;;;58.42;42.05;;;;;;;;;;4955166;28;20047;-63
2021/10/20 10:45:33;;;;;;;57.97;44.03;;;;;;;;;;4955349;29;20046;-63
2021/10/20 10:48:01;;;;;;;55.40;43.05;;;;;;;;;;4954848;29;20044;-63
2021/10/20 10:51:02;;;;;;;52.45;41.63;;;;;;;;;;4938924;29;20374;-64
2021/10/20 10:53:29;;;;;;;54.97;40.75;;;;;;;;;;4945277;29;20044;-63
2021/10/20 10:56:15;;;;;;;52.03;41.70;;;;;;;;;;4956055;29;20038;-63
2021/10/20 10:59:00;;;;;;;59.55;42.90;;;;;;;;;;4955215;29;20098;-63
2021/10/20 11:01:44;;;;;;;52.15;41.75;;;;;;;;;;4954335;29;20086;-63
2021/10/20 11:04:26;;;;;;;55.67;43.40;;;;;;;;;;4956060;29;20532;-63
2021/10/20 11:06:53;;;;;;;53.42;41.90;;;;;;;;;;4937339;29;20048;-63
2021/10/20 11:09:29;;;;;;;56.35;44.38;;;;;;;;;;4936737;29;20079;-63
2021/10/20 11:11:56;;;;;;;54.63;42.38;;;;;;;;;;4955809;29;20054;-63
2021/10/20 11:14:23;;;;;;;53.85;42.58;;;;;;;;;;4956214;29;20513;-63
2021/10/20 11:17:04;;;;;;;56.45;42.78;;;;;;;;;;4937051;29;20043;-64
2021/10/20 11:19:30;;;;;;;55.17;42.22;;;;;;;;;;4937598;29;20137;-63
2021/10/20 11:21:58;;;;;;;54.22;43.47;;;;;;;;;;4955319;29;20039;-63
2021/10/20 11:24:24;;;;;;;52.90;41.45;;;;;;;;;;4938548;29;20043;-71
2021/10/20 11:26:53;;;;;;;52.22;41.88;;;;;;;;;;4951756;29;20031;-64
2021/10/20 11:29:20;;;;;;;52.75;42.55;;;;;;;;;;4952792;29;20055;-65
2021/10/20 11:31:50;;;;;;;52.45;40.15;;;;;;;;;;4955283;29;20122;-65
2021/10/20 11:34:20;;;;;;;53.25;41.67;;;;;;;;;;4953772;28;20039;-64
2021/10/20 11:36:48;;;;;;;61.45;43.85;;;;;;;;;;4954756;29;20503;-69
2021/10/20 11:39:15;;;;;;;58.95;42.85;;;;;;;;;;4953315;29;20106;-70
2021/10/20 11:41:54;;;;;;;63.45;43.88;;;;;;;;;;4954308;29;20070;-73
2021/10/20 11:44:25;;;;;;;56.67;42.30;;;;;;;;;;4952225;29;20601;-67
2021/10/20 11:46:51;;;;;;;57.15;39.70;;;;;;;;;;4953651;29;20448;-67
2021/10/20 11:49:17;;;;;;;53.85;39.53;;;;;;;;;;4950700;29;20054;-67
2021/10/20 11:51:44;;;;;;;55.42;41.03;;;;;;;;;;4955205;29;20043;-67
2021/10/20 11:54:10;;;;;;;53.83;40.72;;;;;;;;;;4925794;29;20045;-67
2021/10/20 11:56:36;;;;;;;51.47;40.75;;;;;;;;;;4935903;29;20046;-67
2021/10/20 11:59:02;;;;;;;55.88;43.05;;;;;;;;;;4940111;29;20399;-67
2021/10/20 12:01:32;;;;;;;54.35;40.67;;;;;;;;;;4935802;29;20055;-67
2021/10/20 12:03:58;;;;;;;51.95;41.92;;;;;;;;;;4943988;29;20043;-67
2021/10/20 12:06:24;;;;;;;56.83;42.42;;;;;;;;;;4954293;29;20035;-66
2021/10/20 12:08:50;;;;;;;49.05;40.72;;;;;;;;;;4953917;29;20098;-68
2021/10/20 12:11:18;;;;;;;50.42;41.10;;;;;;;;;;4954903;29;20039;-66
2021/10/20 12:13:44;;;;;;;55.75;39.53;;;;;;;;;;4947512;29;20042;-66
2021/10/20 12:16:11;;;;;;;61.05;42.72;;;;;;;;;;4935848;29;20035;-67
2021/10/20 12:18:39;;;;;;;51.38;41.88;;;;;;;;;;4940142;29;20074;-66
2021/10/20 12:21:10;;;;;;;55.00;41.35;;;;;;;;;;4955090;29;20573;-66
2021/10/20 12:23:37;;;;;;;51.35;41.80;;;;;;;;;;4922536;29;20042;-66
2021/10/20 12:26:04;;;;;;;59.40;43.03;;;;;;;;;;4935768;29;20040;-66
2021/10/20 12:28:30;;;;;;;58.75;43.45;;;;;;;;;;4934515;29;20039;-66
2021/10/20 12:30:56;;;;;;;51.95;41.85;;;;;;;;;;4936058;29;20044;-67
2021/10/20 12:33:23;;;;;;;56.83;43.33;;;;;;;;;;4939155;29;20091;-67
2021/10/20 12:35:51;;;;;;;57.80;46.80;;;;;;;;;;4950831;28;20056;-67
2021/10/20 12:38:19;;;;;;;66.78;49.60;;;;;;;;;;4953576;29;20074;-67
2021/10/20 12:40:48;;;;;;;62.05;48.03;;;;;;;;;;4953341;29;20043;-67
2021/10/20 12:43:18;;;;;;;68.55;50.92;;;;;;;;;;4954655;29;20560;-67
2021/10/20 12:45:48;;;;;;;74.28;52.55;;;;;;;;;;4953689;29;20046;-67
2021/10/20 12:48:14;;;;;;;70.93;53.83;;;;;;;;;;4937518;29;20101;-67
2021/10/20 12:50:41;;;;;;;65.18;52.00;;;;;;;;;;4953209;29;20157;-67
2021/10/20 12:53:13;;;;;;;70.72;54.78;;;;;;;;;;4937165;29;20164;-67
2021/10/20 12:55:39;;;;;;;73.03;55.90;;;;;;;;;;4953546;29;20038;-67
2021/10/20 12:58:11;;;;;;;71.57;54.00;;;;;;;;;;4953951;29;20075;-67
2021/10/20 13:00:37;;;;;;;67.03;51.95;;;;;;;;;;4953369;29;20509;-67
2021/10/20 13:03:03;;;;;;;72.70;53.78;;;;;;;;;;4953699;29;20039;-67
2021/10/20 13:05:30;;;;;;;67.47;53.10;;;;;;;;;;4953763;28;20094;-67
2021/10/20 13:07:56;;;;;;;67.07;53.70;;;;;;;;;;4958491;29;20091;-67
2021/10/20 13:10:22;;;;;;;69.20;53.33;;;;;;;;;;4956364;29;20043;-67
2021/10/20 13:13:00;;;;;;;72.55;52.15;;;;;;;;;;4940223;29;20067;-66
2021/10/20 13:15:30;;;;;;;69.65;52.40;;;;;;;;;;4956915;29;20047;-67
2021/10/20 13:17:59;;;;;;;77.18;53.30;;;;;;;;;;4957086;29;20074;-67
2021/10/20 13:20:26;;;;;;;68.65;54.42;;;;;;;;;;4956836;28;20043;-67
2021/10/20 13:22:52;;;;;;;73.10;53.60;;;;;;;;;;4958019;29;20039;-67
2021/10/20 13:25:19;;;;;;;70.43;52.88;;;;;;;;;;4936414;29;20046;-67
2021/10/20 13:27:45;;;;;;;68.07;52.08;;;;;;;;;;4938717;29;20031;-67
2021/10/20 13:30:13;;;;;;;70.18;54.58;;;;;;;;;;4941800;29;20107;-67
2021/10/20 13:32:39;;;;;;;78.60;54.33;;;;;;;;;;4957203;29;20128;-67
2021/10/20 13:35:06;;;;;;;80.40;57.45;;;;;;;;;;4956679;29;20122;-66
2021/10/20 13:37:32;;;;;;;76.20;54.88;;;;;;;;;;4957657;29;20548;-67
2021/10/20 13:39:58;;;;;;;75.07;54.05;;;;;;;;;;4956331;29;20489;-67
2021/10/20 13:42:25;;;;;;;72.90;55.60;;;;;;;;;;4957819;29;20036;-67
2021/10/20 13:44:52;;;;;;;74.35;56.90;;;;;;;;;;4939659;29;20397;-67
2021/10/20 13:47:18;;;;;;;80.85;57.72;;;;;;;;;;4957315;29;20035;-67
2021/10/20 13:49:44;;;;;;;79.53;59.20;;;;;;;;;;4950351;29;20115;-67
2021/10/20 13:52:10;;;;;;;75.70;57.35;;;;;;;;;;4955530;29;20392;-67
2021/10/20 13:54:36;;;;;;;77.93;58.67;;;;;;;;;;4957415;29;20027;-67
2021/10/20 13:57:02;;;;;;;78.93;61.47;;;;;;;;;;4955337;29;20031;-67
2021/10/20 13:59:28;;;;;;;75.45;58.22;;;;;;;;;;4956280;29;20126;-67
2021/10/20 14:01:55;;;;;;;80.28;59.08;;;;;;;;;;4955210;29;20040;-66
2021/10/20 14:04:24;;;;;;;74.88;57.90;;;;;;;;;;4956260;29;20421;-67
2021/10/20 14:06:55;;;;;;;85.05;61.80;;;;;;;;;;4956069;29;20035;-67
2021/10/20 14:09:21;;;;;;;81.80;60.45;;;;;;;;;;4957225;29;20031;-67
2021/10/20 14:11:47;;;;;;;81.95;61.78;;;;;;;;;;4955689;28;20035;-67
2021/10/20 14:14:13;;;;;;;82.07;63.30;;;;;;;;;;4957238;29;20054;-67
2021/10/20 14:16:39;;;;;;;84.25;61.60;;;;;;;;;;4955926;28;20141;-67